sensor_id;sensor_type;location;lat;lon;timestamp;P1;durP1;ratioP1;P2;durP2;ratioP2
83932;SDS011;73967;53.406;8.146;2023-11-19T00:01:09;21.23;;;11.07;;
83932;SDS011;73967;53.406;8.146;2023-11-19T00:04:10;18.67;;;10.48;;
83932;SDS011;73967;53.406;8.146;2023-11-19T00:07:12;17.52;;;9.73;;
83932;SDS011;73967;53.406;8.146;2023-11-19T00:10:15;21.42;;;11.48;;
83932;SDS011;73967;53.406;8.146;2023-11-19T00:13:20;23.05;;;11.05;;
83932;SDS011;73967;53.406;8.146;2023-11-19T00:16:22;23.95;;;10.77;;
83932;SDS011;73967;53.406;8.146;2023-11-19T00:19:24;23.05;;;11.38;;
83932;SDS011;73967;53.406;8.146;2023-11-19T00:22:25;23.27;;;11.45;;
83932;SDS011;73967;53.406;8.146;2023-11-19T00:25:27;25.85;;;11.98;;
83932;SDS011;73967;53.406;8.146;2023-11-19T00:28:28;25.70;;;12.75;;
83932;SDS011;73967;53.406;8.146;2023-11-19T00:31:30;28.48;;;12.90;;
83932;SDS011;73967;53.406;8.146;2023-11-19T00:34:32;29.60;;;13.50;;
83932;SDS011;73967;53.406;8.146;2023-11-19T00:37:34;28.60;;;13.40;;
83932;SDS011;73967;53.406;8.146;2023-11-19T00:40:35;29.08;;;13.27;;
83932;SDS011;73967;53.406;8.146;2023-11-19T00:43:37;27.05;;;12.80;;
83932;SDS011;73967;53.406;8.146;2023-11-19T00:46:39;31.17;;;13.30;;
83932;SDS011;73967;53.406;8.146;2023-11-19T00:49:41;29.15;;;13.18;;
83932;SDS011;73967;53.406;8.146;2023-11-19T00:52:44;28.02;;;11.95;;
83932;SDS011;73967;53.406;8.146;2023-11-19T00:55:45;33.20;;;12.90;;
83932;SDS011;73967;53.406;8.146;2023-11-19T00:58:47;31.02;;;13.40;;
83932;SDS011;73967;53.406;8.146;2023-11-19T01:01:49;35.08;;;13.45;;
83932;SDS011;73967;53.406;8.146;2023-11-19T01:04:52;31.40;;;13.27;;
83932;SDS011;73967;53.406;8.146;2023-11-19T01:07:54;32.05;;;12.15;;
83932;SDS011;73967;53.406;8.146;2023-11-19T01:10:56;36.30;;;14.05;;
83932;SDS011;73967;53.406;8.146;2023-11-19T01:13:58;32.42;;;13.10;;
83932;SDS011;73967;53.406;8.146;2023-11-19T01:16:59;32.15;;;13.73;;
83932;SDS011;73967;53.406;8.146;2023-11-19T01:20:02;39.85;;;14.68;;
83932;SDS011;73967;53.406;8.146;2023-11-19T01:23:07;34.53;;;15.23;;
83932;SDS011;73967;53.406;8.146;2023-11-19T01:26:09;35.90;;;15.48;;
83932;SDS011;73967;53.406;8.146;2023-11-19T01:29:12;33.20;;;14.05;;
83932;SDS011;73967;53.406;8.146;2023-11-19T01:32:17;36.33;;;14.35;;
83932;SDS011;73967;53.406;8.146;2023-11-19T01:35:18;38.40;;;13.95;;
83932;SDS011;73967;53.406;8.146;2023-11-19T01:38:20;35.17;;;14.52;;
83932;SDS011;73967;53.406;8.146;2023-11-19T01:41:21;38.00;;;13.02;;
83932;SDS011;73967;53.406;8.146;2023-11-19T01:44:23;29.35;;;12.68;;
83932;SDS011;73967;53.406;8.146;2023-11-19T01:47:28;32.22;;;13.43;;
83932;SDS011;73967;53.406;8.146;2023-11-19T01:50:30;32.22;;;14.13;;
83932;SDS011;73967;53.406;8.146;2023-11-19T01:53:31;32.80;;;12.43;;
83932;SDS011;73967;53.406;8.146;2023-11-19T01:56:33;28.23;;;12.00;;
83932;SDS011;73967;53.406;8.146;2023-11-19T01:59:36;30.35;;;12.30;;
83932;SDS011;73967;53.406;8.146;2023-11-19T02:02:38;28.05;;;11.65;;
83932;SDS011;73967;53.406;8.146;2023-11-19T02:05:41;26.77;;;11.43;;
83932;SDS011;73967;53.406;8.146;2023-11-19T02:08:43;25.80;;;11.15;;
83932;SDS011;73967;53.406;8.146;2023-11-19T02:11:45;22.50;;;9.77;;
83932;SDS011;73967;53.406;8.146;2023-11-19T02:14:50;27.48;;;11.50;;
83932;SDS011;73967;53.406;8.146;2023-11-19T02:17:52;24.40;;;10.10;;
83932;SDS011;73967;53.406;8.146;2023-11-19T02:20:54;28.33;;;10.65;;
83932;SDS011;73967;53.406;8.146;2023-11-19T02:23:58;24.08;;;10.35;;
83932;SDS011;73967;53.406;8.146;2023-11-19T02:27:06;23.98;;;9.32;;
83932;SDS011;73967;53.406;8.146;2023-11-19T02:30:11;25.60;;;10.27;;
83932;SDS011;73967;53.406;8.146;2023-11-19T02:33:16;24.95;;;10.57;;
83932;SDS011;73967;53.406;8.146;2023-11-19T02:36:17;24.60;;;9.98;;
83932;SDS011;73967;53.406;8.146;2023-11-19T02:39:19;27.20;;;10.15;;
83932;SDS011;73967;53.406;8.146;2023-11-19T02:42:23;25.63;;;10.23;;
83932;SDS011;73967;53.406;8.146;2023-11-19T02:45:24;31.25;;;10.38;;
83932;SDS011;73967;53.406;8.146;2023-11-19T02:48:27;34.50;;;10.65;;
83932;SDS011;73967;53.406;8.146;2023-11-19T02:51:28;30.25;;;11.18;;
83932;SDS011;73967;53.406;8.146;2023-11-19T02:54:31;28.83;;;10.07;;
